Terminal Aerodrome Forecast
Issued by NWS Cleveland, OH

Home | Current Version | Previous Version | Text Only | Print | Product List | Glossary Off
Versions: 1 2 3 4 5 6 7 8 9 10 11 12 13 14 15

944
FTUS41 KCLE 102141 AAA
TAFMFD
TAF AMD
KMFD 102141Z 1022/1118 26015G22KT 1/2SM SN VV005
      TEMPO 1022/1023 2SM -SHSN OVC012
     FM102300 26015G22KT 1SM -SHSN OVC015
      TEMPO 1023/1101 5SM -SHSN OVC025
     FM110100 27010G18KT 6SM -SHSN OVC018
     FM111000 29010KT P6SM BKN025=

USA.gov is the U.S. government's official web portal to all federal, state and local government web resources and services.